Time;durP1;ratioP1;P1;durP2;ratioP2;P2;SDS_P1;SDS_P2;PMS_P1;PMS_P2;Temp;Humidity;BMP_temperature;BMP_pressure;BME280_temperature;BME280_humidity;BME280_pressure;Samples;Min_cycle;Max_cycle;Signal;HPM_P1;HPM_P2
2022/03/01 00:00:18;;;;;;;20.75;10.25;;;-0.70;77.70;;;;;;5035196;28;20028;-72
2022/03/01 00:02:45;;;;;;;16.00;9.25;;;-0.80;78.00;;;;;;5032029;28;20025;-72
2022/03/01 00:05:11;;;;;;;19.63;9.75;;;-0.90;78.40;;;;;;5033990;28;20539;-72
2022/03/01 00:07:36;;;;;;;20.83;9.73;;;-0.80;78.40;;;;;;5036672;28;20017;-72
2022/03/01 00:10:03;;;;;;;20.25;10.23;;;-0.90;78.50;;;;;;5035020;28;20034;-71
2022/03/01 00:12:29;;;;;;;16.98;9.02;;;-0.90;78.70;;;;;;5036434;28;20057;-71
2022/03/01 00:14:55;;;;;;;18.05;9.93;;;-0.90;78.80;;;;;;5035704;28;20083;-71
2022/03/01 00:17:20;;;;;;;17.23;9.60;;;-0.80;78.80;;;;;;5037120;28;20025;-71
2022/03/01 00:19:46;;;;;;;19.05;9.25;;;-0.90;78.80;;;;;;5042502;28;20132;-71
2022/03/01 00:22:12;;;;;;;17.77;9.80;;;-0.80;78.50;;;;;;5035795;28;20481;-71
2022/03/01 00:24:38;;;;;;;17.63;9.25;;;-0.90;78.60;;;;;;5036510;28;20013;-72
2022/03/01 00:27:04;;;;;;;19.63;9.90;;;-0.90;78.60;;;;;;5036141;28;20453;-71
2022/03/01 00:29:29;;;;;;;21.30;10.80;;;-0.90;78.90;;;;;;5035992;28;20037;-71
2022/03/01 00:31:55;;;;;;;18.80;10.40;;;-0.80;78.60;;;;;;5034206;28;20450;-71
2022/03/01 00:34:21;;;;;;;18.38;10.18;;;-0.80;78.80;;;;;;5031953;28;20350;-71
2022/03/01 00:36:46;;;;;;;17.23;9.80;;;-0.90;78.80;;;;;;5032073;28;20445;-71
2022/03/01 00:39:12;;;;;;;17.85;9.45;;;-0.90;79.00;;;;;;5033515;28;20036;-71
2022/03/01 00:41:38;;;;;;;24.10;10.20;;;-1.00;79.30;;;;;;5035932;28;20033;-72
2022/03/01 00:44:04;;;;;;;19.40;9.98;;;-1.10;79.50;;;;;;5035420;28;20403;-70
2022/03/01 00:46:29;;;;;;;18.30;9.75;;;-1.10;79.80;;;;;;5036210;28;20029;-72
2022/03/01 00:48:57;;;;;;;22.73;9.93;;;-1.20;79.90;;;;;;5036391;28;20029;-72
2022/03/01 00:51:23;;;;;;;20.90;10.32;;;-1.30;80.40;;;;;;5033173;28;20105;-72
2022/03/01 00:53:49;;;;;;;19.80;10.13;;;-1.20;80.10;;;;;;5035899;28;20025;-71
2022/03/01 00:56:15;;;;;;;20.08;10.13;;;-1.10;79.90;;;;;;5033879;28;20299;-71
2022/03/01 00:58:41;;;;;;;22.42;11.02;;;-1.10;79.80;;;;;;5034952;28;20025;-72
2022/03/01 01:01:06;;;;;;;18.77;9.98;;;-1.00;79.60;;;;;;5035064;28;20083;-72
2022/03/01 01:03:32;;;;;;;20.05;9.85;;;-1.00;79.70;;;;;;5034783;28;20315;-72
2022/03/01 01:05:58;;;;;;;20.90;10.43;;;-1.10;79.70;;;;;;5032311;28;20398;-72
2022/03/01 01:08:23;;;;;;;21.77;10.80;;;-1.20;79.80;;;;;;5033789;28;20037;-71
2022/03/01 01:10:49;;;;;;;19.17;9.43;;;-1.10;79.70;;;;;;5034718;28;20037;-71
2022/03/01 01:13:16;;;;;;;22.20;10.73;;;-1.10;79.40;;;;;;5032854;28;20052;-72
2022/03/01 01:15:42;;;;;;;21.63;11.15;;;-1.10;79.40;;;;;;5033539;28;20030;-72
2022/03/01 01:18:08;;;;;;;18.17;10.20;;;-1.10;79.60;;;;;;5035466;28;20029;-71
2022/03/01 01:20:34;;;;;;;19.73;10.27;;;-1.20;79.60;;;;;;5033815;28;20111;-72
2022/03/01 01:23:01;;;;;;;21.35;10.35;;;-1.20;79.90;;;;;;5033421;28;20018;-72
2022/03/01 01:25:27;;;;;;;21.42;10.27;;;-1.10;79.90;;;;;;5035039;28;20075;-71
2022/03/01 01:27:57;;;;;;;24.13;11.10;;;-1.10;80.00;;;;;;5031227;28;20156;-71
2022/03/01 01:30:26;;;;;;;21.08;11.10;;;-1.20;80.20;;;;;;5030768;28;20330;-72
2022/03/01 01:32:52;;;;;;;20.85;10.23;;;-1.10;80.20;;;;;;5034706;28;20037;-71
2022/03/01 01:35:20;;;;;;;25.77;11.30;;;-1.10;79.90;;;;;;5035390;28;20022;-71
2022/03/01 01:37:47;;;;;;;20.52;10.70;;;-1.10;80.00;;;;;;5034341;28;20355;-72
2022/03/01 01:40:17;;;;;;;18.08;10.57;;;-1.20;80.30;;;;;;5034158;28;20026;-71
2022/03/01 01:42:43;;;;;;;19.85;10.32;;;-1.00;80.20;;;;;;5034553;28;20436;-72
2022/03/01 01:45:10;;;;;;;21.92;11.57;;;-1.00;80.00;;;;;;5034014;28;20018;-72
2022/03/01 01:47:37;;;;;;;20.92;10.13;;;-1.10;80.20;;;;;;5035108;28;20025;-72
2022/03/01 01:50:04;;;;;;;20.92;11.35;;;-1.30;80.80;;;;;;5034893;28;20029;-71
2022/03/01 01:52:30;;;;;;;19.30;10.32;;;-1.20;80.70;;;;;;5034063;28;20418;-72
2022/03/01 01:54:56;;;;;;;23.15;11.48;;;-1.20;80.60;;;;;;5034686;28;20033;-72
2022/03/01 01:57:23;;;;;;;21.98;11.10;;;-1.20;80.60;;;;;;5035014;28;20032;-72
2022/03/01 01:59:51;;;;;;;19.08;10.25;;;-1.20;80.70;;;;;;5033911;28;20033;-72
2022/03/01 02:02:20;;;;;;;19.90;10.75;;;-1.40;80.90;;;;;;5035211;28;20036;-71
2022/03/01 02:04:46;;;;;;;19.77;10.52;;;-1.50;81.20;;;;;;5035060;28;20030;-71
2022/03/01 02:07:15;;;;;;;21.67;10.82;;;-1.50;81.60;;;;;;5032644;28;20026;-71
2022/03/01 02:09:42;;;;;;;21.42;11.25;;;-1.50;81.30;;;;;;5034429;28;20025;-70
2022/03/01 02:12:08;;;;;;;20.17;10.25;;;-1.60;81.60;;;;;;5033529;28;20313;-71
2022/03/01 02:14:36;;;;;;;19.10;10.90;;;-1.80;82.10;;;;;;5033427;28;20044;-71
2022/03/01 02:17:04;;;;;;;18.33;9.73;;;-2.00;82.70;;;;;;5033742;28;20033;-71
2022/03/01 02:19:30;;;;;;;21.58;11.15;;;-2.40;83.60;;;;;;5033424;28;20029;-71
2022/03/01 02:21:57;;;;;;;23.00;12.63;;;-2.60;84.80;;;;;;5034099;28;20026;-71
2022/03/01 02:24:25;;;;;;;24.17;12.27;;;-2.80;85.90;;;;;;5032679;28;20029;-72
2022/03/01 02:26:59;;;;;;;25.45;12.75;;;-3.00;86.60;;;;;;5033467;28;20029;-71
2022/03/01 02:29:26;;;;;;;26.13;12.77;;;-3.10;87.10;;;;;;5031574;28;20108;-71
2022/03/01 02:31:56;;;;;;;26.50;13.48;;;-3.10;87.60;;;;;;5032959;28;20040;-71
2022/03/01 02:34:24;;;;;;;23.83;12.10;;;-3.20;88.00;;;;;;5032736;28;20122;-71
2022/03/01 02:36:50;;;;;;;20.70;11.73;;;-3.10;88.40;;;;;;5034328;28;20382;-71
2022/03/01 02:39:17;;;;;;;24.45;12.50;;;-3.00;88.00;;;;;;5033735;28;20068;-71
2022/03/01 02:41:44;;;;;;;21.65;11.40;;;-2.80;87.70;;;;;;5032742;28;20022;-71
2022/03/01 02:44:11;;;;;;;25.48;11.85;;;-2.60;86.70;;;;;;5032138;28;20030;-71
2022/03/01 02:46:37;;;;;;;21.45;11.68;;;-2.30;85.90;;;;;;5034354;28;20091;-71
2022/03/01 02:49:04;;;;;;;25.67;12.70;;;-2.10;85.00;;;;;;5032660;28;20033;-70
2022/03/01 02:51:30;;;;;;;25.70;12.98;;;-1.90;84.00;;;;;;5034956;28;20026;-71
2022/03/01 02:53:58;;;;;;;19.95;11.15;;;-1.80;83.70;;;;;;5033575;28;20039;-71
2022/03/01 02:56:24;;;;;;;24.55;12.00;;;-1.90;83.40;;;;;;5036146;28;20029;-71
2022/03/01 02:58:50;;;;;;;22.42;12.02;;;-1.80;83.20;;;;;;5035713;28;20037;-70
2022/03/01 03:01:16;;;;;;;19.63;11.45;;;-1.90;83.60;;;;;;5037726;28;20030;-71
2022/03/01 03:03:41;;;;;;;19.35;11.40;;;-2.00;83.80;;;;;;5035599;28;20382;-71
2022/03/01 03:06:07;;;;;;;22.25;12.05;;;-2.00;83.70;;;;;;5033597;28;20037;-70
2022/03/01 03:08:33;;;;;;;22.55;12.02;;;-2.20;84.10;;;;;;5037934;28;20044;-70
2022/03/01 03:11:02;;;;;;;23.00;12.20;;;-2.30;84.60;;;;;;5036988;28;20311;-71
2022/03/01 03:13:27;;;;;;;19.27;11.43;;;-2.40;85.20;;;;;;5036123;28;21411;-71
2022/03/01 03:15:53;;;;;;;22.35;10.90;;;-2.40;85.10;;;;;;5036198;28;20037;-70
2022/03/01 03:18:19;;;;;;;26.38;13.68;;;-2.30;84.40;;;;;;5036911;28;20040;-70
2022/03/01 03:20:44;;;;;;;24.90;12.63;;;-2.40;85.00;;;;;;5037484;28;20037;-71
2022/03/01 03:23:11;;;;;;;23.42;12.57;;;-2.50;85.30;;;;;;5037615;28;20029;-71
2022/03/01 03:25:37;;;;;;;24.25;12.40;;;-2.70;85.60;;;;;;5036294;28;20108;-70
2022/03/01 03:28:03;;;;;;;22.50;11.98;;;-2.80;86.40;;;;;;5036324;28;20129;-70
2022/03/01 03:30:29;;;;;;;23.92;12.70;;;-2.80;86.80;;;;;;5036593;28;20026;-71
2022/03/01 03:32:55;;;;;;;23.98;12.70;;;-2.90;87.00;;;;;;5035015;28;20047;-70
2022/03/01 03:35:23;;;;;;;23.20;12.88;;;-3.10;87.30;;;;;;5033881;28;20056;-71
2022/03/01 03:37:49;;;;;;;24.98;13.05;;;-3.30;88.10;;;;;;5036848;28;20033;-72
2022/03/01 03:40:15;;;;;;;26.95;13.15;;;-3.50;88.80;;;;;;5037235;28;20056;-72
2022/03/01 03:42:44;;;;;;;26.80;12.85;;;-3.70;89.20;;;;;;5037659;28;20028;-71
2022/03/01 03:45:14;;;;;;;28.65;13.18;;;-3.90;90.20;;;;;;5035951;28;20403;-72
2022/03/01 03:47:40;;;;;;;25.52;13.13;;;-3.90;90.90;;;;;;5035978;28;20097;-71
2022/03/01 03:50:09;;;;;;;22.33;12.43;;;-3.90;91.10;;;;;;5040407;28;20116;-71
2022/03/01 03:52:35;;;;;;;24.35;13.13;;;-3.90;91.00;;;;;;5035920;28;20060;-72
2022/03/01 03:55:01;;;;;;;25.45;13.68;;;-3.80;90.70;;;;;;5027876;28;20030;-71
2022/03/01 03:57:27;;;;;;;23.52;12.73;;;-4.00;90.90;;;;;;5037205;28;20106;-71
2022/03/01 03:59:53;;;;;;;24.48;13.07;;;-4.10;91.00;;;;;;5034953;28;20361;-71
2022/03/01 04:02:19;;;;;;;28.10;13.93;;;-4.00;91.20;;;;;;5036819;28;20025;-71
2022/03/01 04:04:44;;;;;;;24.35;13.10;;;-4.00;91.00;;;;;;5035740;28;20033;-71
2022/03/01 04:07:10;;;;;;;24.35;13.25;;;-4.00;91.10;;;;;;5036574;28;20117;-71
2022/03/01 04:09:36;;;;;;;20.63;11.50;;;-3.80;90.70;;;;;;5037092;28;20120;-71
2022/03/01 04:12:02;;;;;;;18.15;10.23;;;-3.70;89.40;;;;;;5035598;28;20111;-71
2022/03/01 04:14:27;;;;;;;25.80;12.45;;;-3.40;87.50;;;;;;5035434;28;20037;-71
2022/03/01 04:16:53;;;;;;;23.63;12.93;;;-3.10;85.80;;;;;;5037369;28;20064;-71
2022/03/01 04:19:18;;;;;;;21.73;11.50;;;-3.20;86.70;;;;;;5034355;28;20106;-71
2022/03/01 04:21:44;;;;;;;18.65;10.27;;;-3.30;86.90;;;;;;5037276;28;20478;-71
2022/03/01 04:24:10;;;;;;;19.95;10.32;;;-3.40;86.70;;;;;;5035909;28;20168;-71
2022/03/01 04:26:35;;;;;;;20.90;11.65;;;-3.30;86.00;;;;;;5035376;28;20046;-71
2022/03/01 04:29:04;;;;;;;21.85;12.05;;;-3.30;86.70;;;;;;5034165;28;20111;-71
2022/03/01 04:31:29;;;;;;;30.35;14.10;;;-3.60;87.80;;;;;;5036863;28;20155;-71
2022/03/01 04:33:56;;;;;;;23.15;12.05;;;-3.80;88.70;;;;;;5034886;28;20112;-71
2022/03/01 04:36:22;;;;;;;24.23;12.63;;;-4.00;89.50;;;;;;5035521;28;20036;-71
2022/03/01 04:38:48;;;;;;;26.88;13.18;;;-3.90;89.90;;;;;;5036693;28;20091;-71
2022/03/01 04:41:14;;;;;;;28.27;13.55;;;-3.90;90.00;;;;;;5035495;28;20061;-71
2022/03/01 04:43:39;;;;;;;25.75;13.75;;;-4.00;90.10;;;;;;5036657;28;20135;-71
2022/03/01 04:46:05;;;;;;;24.88;13.88;;;-4.20;90.20;;;;;;5034162;28;20032;-71
2022/03/01 04:48:31;;;;;;;23.20;12.98;;;-4.20;91.00;;;;;;5034022;28;20040;-72
2022/03/01 04:50:57;;;;;;;35.17;17.65;;;-4.10;91.20;;;;;;5036209;28;20033;-71
2022/03/01 04:53:23;;;;;;;31.20;15.07;;;-4.20;91.20;;;;;;5035876;28;20433;-71
2022/03/01 04:55:49;;;;;;;30.08;14.32;;;-4.30;91.50;;;;;;5038295;28;20060;-71
2022/03/01 04:58:15;;;;;;;29.20;14.65;;;-4.40;91.60;;;;;;5036528;28;20410;-72
2022/03/01 05:00:41;;;;;;;37.83;19.13;;;-4.50;92.10;;;;;;5033392;28;20128;-72
2022/03/01 05:03:06;;;;;;;29.55;15.70;;;-4.60;92.30;;;;;;5036305;28;20041;-72
2022/03/01 05:05:32;;;;;;;44.20;20.70;;;-4.60;92.60;;;;;;5036495;28;20032;-71
2022/03/01 05:07:58;;;;;;;33.80;17.20;;;-4.60;93.20;;;;;;5036844;28;20402;-72
2022/03/01 05:10:24;;;;;;;33.22;16.40;;;-4.60;93.10;;;;;;5035250;28;20485;-71
2022/03/01 05:12:53;;;;;;;81.72;36.40;;;-4.50;92.70;;;;;;5034241;28;20033;-72
2022/03/01 05:15:20;;;;;;;35.63;18.42;;;-4.60;92.60;;;;;;5033000;28;20040;-71
2022/03/01 05:17:47;;;;;;;39.20;18.08;;;-4.60;92.60;;;;;;5033486;28;20405;-71
2022/03/01 05:20:14;;;;;;;30.70;16.15;;;-4.60;92.60;;;;;;5034047;28;20065;-71
2022/03/01 05:22:40;;;;;;;31.83;16.73;;;-4.70;92.80;;;;;;5035155;28;20083;-72
2022/03/01 05:25:12;;;;;;;30.02;15.88;;;-4.70;93.10;;;;;;5035058;28;20025;-72
2022/03/01 05:27:38;;;;;;;25.67;14.05;;;-4.80;93.20;;;;;;5027132;28;20056;-72
2022/03/01 05:30:06;;;;;;;27.55;14.63;;;-4.70;93.20;;;;;;5029465;28;20033;-71
2022/03/01 05:32:36;;;;;;;24.17;13.27;;;-4.60;92.60;;;;;;5038991;28;20037;-72
2022/03/01 05:35:03;;;;;;;20.38;11.05;;;-4.60;92.30;;;;;;5033629;28;20482;-71
2022/03/01 05:37:29;;;;;;;20.08;11.13;;;-4.40;91.30;;;;;;5034789;28;20029;-71
2022/03/01 05:39:54;;;;;;;20.48;10.27;;;-3.90;89.30;;;;;;5031453;28;20052;-71
2022/03/01 05:42:20;;;;;;;20.25;11.80;;;-3.40;87.20;;;;;;5034985;28;20314;-71
2022/03/01 05:44:46;;;;;;;23.15;10.13;;;-3.10;85.40;;;;;;5029959;28;20334;-71
2022/03/01 05:47:11;;;;;;;20.90;10.90;;;-2.80;83.90;;;;;;5033894;28;20072;-71
2022/03/01 05:49:39;;;;;;;15.90;9.20;;;-2.60;83.10;;;;;;5030287;28;20087;-70
2022/03/01 05:52:08;;;;;;;30.63;16.65;;;-2.50;82.40;;;;;;5033658;28;20064;-70
2022/03/01 05:54:34;;;;;;;27.02;13.70;;;-2.60;82.50;;;;;;5035087;28;20033;-70
2022/03/01 05:57:07;;;;;;;26.98;12.60;;;-2.80;83.10;;;;;;5031728;28;20041;-70
2022/03/01 05:59:34;;;;;;;26.50;13.95;;;-3.00;84.10;;;;;;5031950;28;20028;-70
2022/03/01 06:02:03;;;;;;;26.30;13.88;;;-3.20;84.50;;;;;;5030072;28;20446;-70
2022/03/01 06:04:31;;;;;;;27.42;13.35;;;-3.50;85.70;;;;;;5036183;28;20039;-70
2022/03/01 06:06:57;;;;;;;26.52;14.35;;;-3.60;86.70;;;;;;5032236;28;20022;-72
2022/03/01 06:09:23;;;;;;;23.75;11.68;;;-3.80;87.30;;;;;;5024602;28;20029;-71
2022/03/01 06:11:48;;;;;;;24.35;12.00;;;-3.90;88.30;;;;;;5027313;28;20033;-70
2022/03/01 06:14:14;;;;;;;28.10;15.75;;;-3.80;89.00;;;;;;5026216;28;20025;-71
2022/03/01 06:16:40;;;;;;;24.17;12.43;;;-3.80;88.90;;;;;;5033844;28;20038;-72
2022/03/01 06:19:06;;;;;;;25.63;13.13;;;-4.00;89.10;;;;;;5029412;28;20037;-71
2022/03/01 06:21:31;;;;;;;26.77;14.55;;;-4.10;89.90;;;;;;5032001;28;20026;-70
2022/03/01 06:23:57;;;;;;;32.65;14.98;;;-4.20;90.30;;;;;;5033001;28;20469;-70
2022/03/01 06:26:23;;;;;;;26.63;14.48;;;-4.30;90.60;;;;;;5030706;28;20140;-70
2022/03/01 06:28:51;;;;;;;29.50;14.75;;;-4.40;90.90;;;;;;5032236;28;20108;-72
2022/03/01 06:31:17;;;;;;;28.58;15.10;;;-4.50;91.60;;;;;;5033855;28;20307;-73
2022/03/01 06:33:42;;;;;;;29.00;14.93;;;-4.60;91.90;;;;;;5033588;28;20753;-71
2022/03/01 06:36:10;;;;;;;29.08;15.75;;;-4.70;92.60;;;;;;5034501;28;20061;-71
2022/03/01 06:38:36;;;;;;;35.38;17.58;;;-4.70;92.80;;;;;;5033757;28;20033;-70
2022/03/01 06:41:04;;;;;;;35.33;16.27;;;-4.80;93.10;;;;;;5025481;28;20447;-70
2022/03/01 06:43:30;;;;;;;31.10;16.42;;;-4.80;93.40;;;;;;5045574;28;20029;-71
2022/03/01 06:45:55;;;;;;;34.92;17.48;;;-4.80;93.80;;;;;;5028267;28;20433;-71
2022/03/01 06:48:24;;;;;;;30.80;19.08;;;-4.70;93.80;;;;;;5034276;28;20025;-70
2022/03/01 06:50:50;;;;;;;32.13;17.50;;;-4.70;93.90;;;;;;5034224;28;20033;-71
2022/03/01 06:53:17;;;;;;;31.67;16.73;;;-4.50;94.00;;;;;;5035078;28;20025;-70
2022/03/01 06:55:44;;;;;;;36.70;18.05;;;-4.40;93.40;;;;;;5027060;28;20060;-70
2022/03/01 06:58:11;;;;;;;32.03;18.38;;;-4.30;92.90;;;;;;5034799;28;20116;-70
2022/03/01 07:00:36;;;;;;;34.15;18.13;;;-4.20;92.60;;;;;;5033041;28;20029;-70
2022/03/01 07:03:02;;;;;;;32.22;17.52;;;-4.10;92.40;;;;;;5030206;28;20034;-70
2022/03/01 07:05:28;;;;;;;34.63;17.40;;;-4.00;92.00;;;;;;5035149;28;20025;-70
2022/03/01 07:07:53;;;;;;;30.83;16.48;;;-3.90;91.90;;;;;;5032167;28;20033;-71
2022/03/01 07:10:19;;;;;;;30.25;15.90;;;-3.80;91.90;;;;;;5022762;28;20316;-70
2022/03/01 07:12:46;;;;;;;27.38;14.82;;;-3.70;91.30;;;;;;5033004;28;20425;-70
2022/03/01 07:15:12;;;;;;;23.92;14.13;;;-3.50;90.40;;;;;;5033567;28;20080;-70
2022/03/01 07:17:38;;;;;;;28.67;15.25;;;-3.40;89.60;;;;;;5033800;28;20029;-70
2022/03/01 07:20:07;;;;;;;27.40;12.60;;;-3.30;89.90;;;;;;5029176;28;20465;-70
2022/03/01 07:22:33;;;;;;;26.05;12.82;;;-3.30;90.00;;;;;;5030641;28;20022;-71
2022/03/01 07:25:02;;;;;;;27.02;13.57;;;-3.00;88.00;;;;;;5034782;28;20438;-70
2022/03/01 07:27:28;;;;;;;31.15;15.25;;;-2.80;86.80;;;;;;5031726;28;20050;-71
2022/03/01 07:29:54;;;;;;;25.70;14.57;;;-2.50;86.00;;;;;;5034435;28;20035;-71
2022/03/01 07:32:20;;;;;;;25.33;13.60;;;-2.30;85.40;;;;;;5034930;28;20033;-70
2022/03/01 07:34:45;;;;;;;32.28;15.45;;;-2.10;84.20;;;;;;5034757;28;20035;-71
2022/03/01 07:37:11;;;;;;;23.52;12.30;;;-2.00;84.10;;;;;;5035105;28;20030;-71
2022/03/01 07:39:38;;;;;;;20.95;10.73;;;-1.80;82.00;;;;;;5032154;28;20099;-70
2022/03/01 07:42:04;;;;;;;24.30;12.50;;;-1.50;80.20;;;;;;5033537;28;20022;-71
2022/03/01 07:44:30;;;;;;;21.70;12.10;;;-1.20;79.30;;;;;;5036766;28;20029;-70
2022/03/01 07:46:56;;;;;;;21.17;10.70;;;-1.10;78.90;;;;;;5036933;28;20032;-70
2022/03/01 07:49:22;;;;;;;20.83;11.75;;;-0.90;78.20;;;;;;5034431;28;20310;-71
2022/03/01 07:51:48;;;;;;;18.38;10.35;;;-0.80;77.40;;;;;;5019762;28;20376;-70
2022/03/01 07:54:14;;;;;;;20.75;10.27;;;-0.70;77.00;;;;;;5027763;28;20319;-71
2022/03/01 07:56:40;;;;;;;18.20;10.15;;;-0.60;76.90;;;;;;5023425;28;20026;-71
2022/03/01 07:59:06;;;;;;;20.10;10.85;;;-0.50;76.00;;;;;;5035071;28;20030;-70
2022/03/01 08:01:32;;;;;;;18.48;9.90;;;-0.30;75.40;;;;;;5037353;28;20049;-71
2022/03/01 08:03:58;;;;;;;19.45;10.63;;;-0.20;75.00;;;;;;5037216;28;20411;-71
2022/03/01 08:06:24;;;;;;;19.40;10.43;;;-0.10;75.10;;;;;;5038466;28;20018;-70
2022/03/01 08:08:49;;;;;;;19.52;10.05;;;-0.10;74.70;;;;;;5038037;28;20033;-71
2022/03/01 08:11:15;;;;;;;19.00;10.00;;;0.10;73.90;;;;;;5036453;28;20041;-70
2022/03/01 08:13:42;;;;;;;19.52;9.93;;;0.20;73.70;;;;;;5037958;28;20029;-71
2022/03/01 08:16:07;;;;;;;16.70;9.93;;;0.30;73.30;;;;;;5036448;28;20021;-71
2022/03/01 08:18:33;;;;;;;18.75;9.80;;;0.50;72.80;;;;;;5036712;28;20021;-71
2022/03/01 08:20:59;;;;;;;15.52;9.38;;;0.60;72.60;;;;;;5038880;28;20045;-70
2022/03/01 08:23:26;;;;;;;19.63;10.05;;;0.90;72.10;;;;;;5035869;28;20102;-70
2022/03/01 08:25:52;;;;;;;16.65;9.75;;;1.50;70.90;;;;;;5037713;28;20044;-71
2022/03/01 08:28:18;;;;;;;17.88;9.23;;;2.50;68.70;;;;;;5036899;28;20047;-71
2022/03/01 08:30:44;;;;;;;16.30;9.00;;;3.40;65.90;;;;;;5035989;28;20108;-70
2022/03/01 08:33:10;;;;;;;15.63;8.90;;;3.90;64.40;;;;;;5037453;28;20393;-71
2022/03/01 08:35:36;;;;;;;20.40;8.60;;;4.60;63.00;;;;;;5037359;28;20026;-70
2022/03/01 08:38:06;;;;;;;16.30;8.75;;;5.00;61.70;;;;;;5037558;28;20428;-71
2022/03/01 08:40:33;;;;;;;15.10;8.95;;;5.00;60.80;;;;;;5027053;28;20029;-70
2022/03/01 08:43:00;;;;;;;16.95;9.40;;;5.00;60.60;;;;;;5037498;28;20017;-71
2022/03/01 08:45:26;;;;;;;16.73;9.20;;;5.10;60.30;;;;;;5035288;28;20021;-70
2022/03/01 08:47:52;;;;;;;16.08;9.35;;;5.20;59.80;;;;;;5035598;28;20121;-71
2022/03/01 08:50:18;;;;;;;13.07;7.43;;;5.40;59.90;;;;;;5034182;28;20357;-71
2022/03/01 08:52:48;;;;;;;17.73;9.32;;;5.70;58.70;;;;;;5026782;28;20088;-71
2022/03/01 08:55:13;;;;;;;14.90;8.50;;;5.70;58.70;;;;;;5017744;28;20025;-71
2022/03/01 08:57:42;;;;;;;19.40;9.70;;;5.30;58.30;;;;;;5035185;28;20036;-71
2022/03/01 09:00:11;;;;;;;18.52;9.38;;;5.10;58.90;;;;;;5025994;28;20445;-70
2022/03/01 09:02:40;;;;;;;16.60;9.18;;;5.30;59.00;;;;;;5021175;28;20099;-71
2022/03/01 09:05:07;;;;;;;17.02;9.32;;;5.30;59.00;;;;;;5019387;28;20060;-71
2022/03/01 09:07:37;;;;;;;16.90;9.10;;;5.80;58.60;;;;;;5032683;28;20021;-71
2022/03/01 09:10:07;;;;;;;15.00;8.45;;;6.10;57.80;;;;;;5047137;28;20440;-70
2022/03/01 09:12:33;;;;;;;15.52;8.43;;;6.40;57.70;;;;;;5037904;28;20032;-70
2022/03/01 09:14:59;;;;;;;18.45;8.77;;;6.60;57.40;;;;;;5035818;28;20025;-70
2022/03/01 09:17:25;;;;;;;16.33;8.93;;;6.50;56.60;;;;;;5036769;28;20036;-70
2022/03/01 09:19:51;;;;;;;17.20;9.07;;;6.50;56.90;;;;;;5036750;28;20469;-70
2022/03/01 09:22:17;;;;;;;16.55;8.70;;;6.70;56.50;;;;;;5035581;28;20167;-70
2022/03/01 09:24:44;;;;;;;15.40;8.65;;;6.60;55.70;;;;;;5025302;28;20096;-69
2022/03/01 09:27:10;;;;;;;15.68;8.50;;;5.90;56.30;;;;;;5036566;28;20056;-71
2022/03/01 09:29:36;;;;;;;16.38;8.55;;;5.80;57.80;;;;;;5032168;28;20029;-71
2022/03/01 09:32:02;;;;;;;15.60;9.10;;;6.40;57.40;;;;;;5034697;28;20292;-71
2022/03/01 09:34:28;;;;;;;14.35;8.10;;;6.80;55.90;;;;;;5034919;28;20025;-71
2022/03/01 09:36:54;;;;;;;14.65;8.35;;;7.00;55.60;;;;;;5036059;28;20034;-71
2022/03/01 09:39:21;;;;;;;15.60;8.15;;;7.40;54.20;;;;;;5035582;28;20037;-71
2022/03/01 09:41:47;;;;;;;13.68;7.90;;;7.40;54.70;;;;;;5035737;28;20064;-71
2022/03/01 09:44:13;;;;;;;14.32;8.88;;;7.40;54.50;;;;;;5034664;28;20022;-71
2022/03/01 09:46:38;;;;;;;12.52;7.55;;;7.70;53.90;;;;;;5035971;28;20370;-71
2022/03/01 09:49:05;;;;;;;15.35;8.95;;;7.70;53.10;;;;;;5035213;28;20437;-71
2022/03/01 09:51:32;;;;;;;15.32;8.18;;;8.10;54.20;;;;;;5036172;28;20029;-72
2022/03/01 09:53:58;;;;;;;13.23;7.93;;;8.50;52.00;;;;;;5035527;28;20036;-71
2022/03/01 09:56:24;;;;;;;12.95;7.53;;;8.20;52.30;;;;;;5035955;28;20029;-71
2022/03/01 09:58:50;;;;;;;12.27;6.85;;;8.30;52.50;;;;;;5034268;28;20414;-71
2022/03/01 10:01:17;;;;;;;14.50;7.13;;;8.50;52.00;;;;;;5035422;28;20025;-71
2022/03/01 10:06:44;;;;;;;11.60;6.95;;;9.40;51.60;;;;;;5031918;28;20033;-71
2022/03/01 10:09:22;;;;;;;12.00;7.03;;;9.90;50.00;;;;;;5040051;28;20025;-71
2022/03/01 10:11:48;;;;;;;13.27;7.78;;;9.60;48.50;;;;;;5030592;28;20025;-71
2022/03/01 10:14:15;;;;;;;13.77;7.55;;;9.70;49.90;;;;;;5034695;28;20079;-71
2022/03/01 10:16:45;;;;;;;11.43;6.65;;;10.00;48.70;;;;;;5031538;28;20107;-71
2022/03/01 10:19:17;;;;;;;11.93;7.30;;;10.10;48.30;;;;;;5029032;28;20048;-71
2022/03/01 10:21:46;;;;;;;12.60;7.38;;;10.10;48.30;;;;;;5035730;28;20028;-71
2022/03/01 10:24:13;;;;;;;12.43;7.43;;;10.30;48.30;;;;;;5016093;28;20026;-71
2022/03/01 10:26:39;;;;;;;14.27;7.57;;;10.20;47.70;;;;;;5021624;28;20148;-71
2022/03/01 10:29:09;;;;;;;13.98;7.50;;;10.20;48.60;;;;;;5042687;28;20478;-71
2022/03/01 10:31:35;;;;;;;12.35;7.18;;;10.70;48.40;;;;;;5037226;28;20030;-71
2022/03/01 10:34:05;;;;;;;11.63;7.30;;;11.10;47.30;;;;;;5035219;28;20025;-71
2022/03/01 10:36:49;;;;;;;12.05;6.60;;;11.00;47.70;;;;;;5023804;28;20033;-71
2022/03/01 10:39:19;;;;;;;13.20;8.38;;;11.80;46.60;;;;;;5034225;28;20117;-71
2022/03/01 10:41:47;;;;;;;12.95;6.65;;;12.20;44.60;;;;;;5035393;28;20104;-71
2022/03/01 10:44:32;;;;;;;11.60;6.60;;;12.20;44.70;;;;;;5033794;28;20026;-71
2022/03/01 10:47:02;;;;;;;12.88;6.65;;;11.90;44.30;;;;;;5035206;28;20080;-71
2022/03/01 10:49:31;;;;;;;11.48;6.65;;;12.00;45.10;;;;;;5035800;28;20017;-71
2022/03/01 10:52:03;;;;;;;11.20;6.55;;;12.20;44.30;;;;;;5034675;28;20441;-71
2022/03/01 10:54:37;;;;;;;12.80;6.93;;;12.20;43.10;;;;;;5035766;28;20403;-71
2022/03/01 10:57:06;;;;;;;9.15;5.70;;;12.20;43.10;;;;;;5035694;28;20103;-72
2022/03/01 10:59:35;;;;;;;12.00;6.80;;;12.60;42.80;;;;;;5034623;28;20041;-72
2022/03/01 11:02:02;;;;;;;10.95;6.25;;;12.50;44.10;;;;;;5030752;28;20056;-72
2022/03/01 11:04:28;;;;;;;11.40;6.85;;;12.40;44.50;;;;;;5021771;28;20351;-72
2022/03/01 11:06:59;;;;;;;10.88;6.50;;;11.80;43.40;;;;;;5015907;28;20105;-72
2022/03/01 11:09:27;;;;;;;13.07;7.22;;;12.50;43.90;;;;;;5031402;28;20102;-72
2022/03/01 11:11:54;;;;;;;11.10;6.72;;;13.10;43.40;;;;;;5031781;28;20030;-73
2022/03/01 11:14:35;;;;;;;9.43;5.88;;;12.20;43.00;;;;;;5034414;28;20105;-73
2022/03/01 11:17:14;;;;;;;14.68;7.57;;;11.70;43.90;;;;;;5036735;28;20074;-73
2022/03/01 11:20:03;;;;;;;11.38;6.72;;;10.60;44.80;;;;;;5039355;28;20065;-73
2022/03/01 11:22:51;;;;;;;12.07;6.60;;;10.30;45.80;;;;;;5035643;28;20111;-73
2022/03/01 11:25:18;;;;;;;12.68;7.18;;;10.10;46.60;;;;;;5037291;28;20021;-72
2022/03/01 11:27:47;;;;;;;11.23;6.93;;;10.20;46.00;;;;;;5037651;28;20049;-72
2022/03/01 11:30:14;;;;;;;12.25;6.70;;;10.80;46.30;;;;;;5036792;28;20029;-73
2022/03/01 11:32:43;;;;;;;10.75;5.88;;;11.50;44.90;;;;;;5037097;28;20029;-72
2022/03/01 11:35:20;;;;;;;11.75;6.80;;;12.50;43.60;;;;;;5038378;28;20040;-73
2022/03/01 11:37:57;;;;;;;13.65;8.35;;;12.30;44.10;;;;;;5037550;28;20033;-72
2022/03/01 11:40:25;;;;;;;15.45;8.73;;;11.70;45.30;;;;;;5039705;28;20032;-71
2022/03/01 11:42:51;;;;;;;15.13;9.40;;;10.10;47.90;;;;;;5055480;28;20021;-71
2022/03/01 11:45:17;;;;;;;12.88;7.82;;;10.10;49.90;;;;;;5037199;28;20032;-71
2022/03/01 11:47:44;;;;;;;15.43;8.88;;;10.70;48.00;;;;;;5030133;28;20045;-71
2022/03/01 11:50:14;;;;;;;14.25;8.68;;;11.30;47.50;;;;;;5038354;28;20033;-72
2022/03/01 11:52:55;;;;;;;13.57;8.57;;;11.00;47.80;;;;;;5037733;28;20346;-72
2022/03/01 11:55:22;;;;;;;14.68;8.80;;;10.20;49.00;;;;;;5038713;28;20030;-72
2022/03/01 11:57:51;;;;;;;19.23;9.55;;;10.20;48.90;;;;;;5037770;28;20040;-71
2022/03/01 12:00:18;;;;;;;14.73;9.23;;;10.00;49.50;;;;;;5044732;28;20419;-72
2022/03/01 12:02:46;;;;;;;15.40;9.07;;;9.80;50.70;;;;;;5037352;28;20028;-71
2022/03/01 12:05:25;;;;;;;19.05;9.77;;;10.00;49.30;;;;;;5038269;28;20129;-71
2022/03/01 12:07:52;;;;;;;15.15;9.23;;;10.00;49.10;;;;;;5038117;28;20032;-70
2022/03/01 12:10:23;;;;;;;17.67;9.88;;;10.20;49.20;;;;;;5038328;28;20025;-69
2022/03/01 12:12:53;;;;;;;13.82;8.68;;;10.90;49.30;;;;;;5038109;28;20357;-70
2022/03/01 12:15:54;;;;;;;17.55;9.07;;;11.20;47.50;;;;;;5036025;28;20104;-69
2022/03/01 12:18:29;;;;;;;16.02;9.43;;;10.90;47.70;;;;;;5026870;28;20059;-70
2022/03/01 12:21:07;;;;;;;15.88;9.13;;;11.00;47.90;;;;;;5037562;28;20033;-70
2022/03/01 12:23:35;;;;;;;18.50;9.50;;;10.60;48.40;;;;;;5037267;28;20061;-69
2022/03/01 12:26:06;;;;;;;16.00;9.88;;;10.20;48.80;;;;;;5035158;28;20465;-71
2022/03/01 12:28:49;;;;;;;15.75;9.30;;;10.60;49.70;;;;;;5037232;28;20037;-71
2022/03/01 12:31:23;;;;;;;15.43;9.27;;;9.90;48.80;;;;;;5037403;28;20045;-70
2022/03/01 12:33:57;;;;;;;15.07;9.20;;;9.50;49.50;;;;;;5036677;28;20089;-71
2022/03/01 12:36:37;;;;;;;14.90;8.82;;;8.70;49.80;;;;;;5036986;28;20444;-71